Saddlebrooke, Arizona
Current Conditions -  °F | °C
As of 10:58 PM on Thursday 30 Oct 2014 (Local Time) from KDMA Reporting Station
Clear Clear  
Wind Chill: 69°   Ceiling: Unl
Heat Index: 69°   Visibility: 10mi
Dew Point: 41°   Wind: 8mph
Humidity: 36%   Direction: 170°S
Pressure: 30.03"   Gusts: NA
Location:  32.4847°N, 110.899°W
Report Text: KDMA 310558Z AUTO 17007KT 10SM CLR 21/05 A3003 RMK AO2 SLP130 T02070049 10301 20203 52010 $
Loading
Personal Weather Stations






























Interactive Weather Map
Tropical Storm Tracking
New forecast layout! Learn more

10-Day Weather Forecast

Advertisements
Track Severe Weather on mobile